sensor_id;sensor_type;location;lat;lon;timestamp;P1;durP1;ratioP1;P2;durP2;ratioP2
70270;SDS011;57680;54.292;18.598;2023-02-28T00:02:11;84.17;;;29.73;;
70270;SDS011;57680;54.292;18.598;2023-02-28T00:04:37;76.17;;;25.37;;
70270;SDS011;57680;54.292;18.598;2023-02-28T00:07:02;72.70;;;26.33;;
70270;SDS011;57680;54.292;18.598;2023-02-28T00:09:28;57.72;;;21.15;;
70270;SDS011;57680;54.292;18.598;2023-02-28T00:11:53;51.00;;;18.63;;
70270;SDS011;57680;54.292;18.598;2023-02-28T00:14:18;50.07;;;18.00;;
70270;SDS011;57680;54.292;18.598;2023-02-28T00:16:44;45.27;;;17.97;;
70270;SDS011;57680;54.292;18.598;2023-02-28T00:19:09;39.42;;;15.60;;
70270;SDS011;57680;54.292;18.598;2023-02-28T00:21:35;40.37;;;15.07;;
70270;SDS011;57680;54.292;18.598;2023-02-28T00:24:00;42.77;;;15.70;;
70270;SDS011;57680;54.292;18.598;2023-02-28T00:26:26;54.47;;;18.77;;
70270;SDS011;57680;54.292;18.598;2023-02-28T00:28:51;43.17;;;14.77;;
70270;SDS011;57680;54.292;18.598;2023-02-28T00:31:17;31.02;;;12.77;;
70270;SDS011;57680;54.292;18.598;2023-02-28T00:33:43;26.88;;;10.13;;
70270;SDS011;57680;54.292;18.598;2023-02-28T00:36:09;20.70;;;7.33;;
70270;SDS011;57680;54.292;18.598;2023-02-28T00:38:36;22.38;;;7.38;;
70270;SDS011;57680;54.292;18.598;2023-02-28T00:41:02;24.77;;;8.52;;
70270;SDS011;57680;54.292;18.598;2023-02-28T00:43:28;32.47;;;11.65;;
70270;SDS011;57680;54.292;18.598;2023-02-28T00:45:53;35.33;;;12.70;;
70270;SDS011;57680;54.292;18.598;2023-02-28T00:48:18;44.00;;;13.67;;
70270;SDS011;57680;54.292;18.598;2023-02-28T00:50:44;35.60;;;12.93;;
70270;SDS011;57680;54.292;18.598;2023-02-28T00:53:09;38.07;;;10.97;;
70270;SDS011;57680;54.292;18.598;2023-02-28T00:55:35;30.27;;;11.75;;
70270;SDS011;57680;54.292;18.598;2023-02-28T00:58:00;29.90;;;10.10;;
70270;SDS011;57680;54.292;18.598;2023-02-28T01:00:25;36.67;;;12.90;;
70270;SDS011;57680;54.292;18.598;2023-02-28T01:02:51;39.30;;;14.40;;
70270;SDS011;57680;54.292;18.598;2023-02-28T01:05:16;31.93;;;11.17;;
70270;SDS011;57680;54.292;18.598;2023-02-28T01:07:42;30.50;;;10.93;;
70270;SDS011;57680;54.292;18.598;2023-02-28T01:10:07;37.83;;;15.70;;
70270;SDS011;57680;54.292;18.598;2023-02-28T01:12:34;35.40;;;12.40;;
70270;SDS011;57680;54.292;18.598;2023-02-28T01:14:59;51.33;;;16.70;;
70270;SDS011;57680;54.292;18.598;2023-02-28T01:17:25;55.15;;;20.05;;
70270;SDS011;57680;54.292;18.598;2023-02-28T01:19:52;58.70;;;21.10;;
70270;SDS011;57680;54.292;18.598;2023-02-28T01:22:18;73.55;;;23.05;;
70270;SDS011;57680;54.292;18.598;2023-02-28T01:24:44;61.03;;;19.70;;
70270;SDS011;57680;54.292;18.598;2023-02-28T01:27:09;63.63;;;20.50;;
70270;SDS011;57680;54.292;18.598;2023-02-28T01:29:35;63.38;;;20.95;;
70270;SDS011;57680;54.292;18.598;2023-02-28T01:32:00;44.77;;;17.17;;
70270;SDS011;57680;54.292;18.598;2023-02-28T01:34:25;49.73;;;17.67;;
70270;SDS011;57680;54.292;18.598;2023-02-28T01:36:51;53.67;;;19.07;;
70270;SDS011;57680;54.292;18.598;2023-02-28T01:39:16;51.87;;;18.50;;
70270;SDS011;57680;54.292;18.598;2023-02-28T01:41:42;59.30;;;20.43;;
70270;SDS011;57680;54.292;18.598;2023-02-28T01:44:54;60.10;;;20.48;;
70270;SDS011;57680;54.292;18.598;2023-02-28T01:47:11;59.00;;;18.30;;
70270;SDS011;57680;54.292;18.598;2023-02-28T01:49:37;54.20;;;18.42;;
70270;SDS011;57680;54.292;18.598;2023-02-28T01:52:02;52.10;;;19.13;;
70270;SDS011;57680;54.292;18.598;2023-02-28T01:54:29;62.10;;;20.23;;
70270;SDS011;57680;54.292;18.598;2023-02-28T01:56:57;33.78;;;11.65;;
70270;SDS011;57680;54.292;18.598;2023-02-28T01:59:32;40.97;;;15.45;;
70270;SDS011;57680;54.292;18.598;2023-02-28T02:02:02;45.45;;;16.60;;
70270;SDS011;57680;54.292;18.598;2023-02-28T02:04:30;55.13;;;17.90;;
70270;SDS011;57680;54.292;18.598;2023-02-28T02:07:01;47.67;;;15.98;;
70270;SDS011;57680;54.292;18.598;2023-02-28T02:09:26;43.13;;;14.43;;
70270;SDS011;57680;54.292;18.598;2023-02-28T02:11:52;45.10;;;15.73;;
70270;SDS011;57680;54.292;18.598;2023-02-28T02:14:40;47.63;;;16.30;;
70270;SDS011;57680;54.292;18.598;2023-02-28T02:19:56;54.25;;;18.55;;
70270;SDS011;57680;54.292;18.598;2023-02-28T02:25:43;45.58;;;16.92;;
70270;SDS011;57680;54.292;18.598;2023-02-28T02:31:03;42.88;;;14.38;;
70270;SDS011;57680;54.292;18.598;2023-02-28T02:36:11;35.33;;;11.52;;
70270;SDS011;57680;54.292;18.598;2023-02-28T02:38:55;15.02;;;5.43;;
70270;SDS011;57680;54.292;18.598;2023-02-28T02:44:07;11.95;;;4.20;;
70270;SDS011;57680;54.292;18.598;2023-02-28T02:46:39;13.43;;;4.22;;
70270;SDS011;57680;54.292;18.598;2023-02-28T02:49:09;13.52;;;4.70;;
70270;SDS011;57680;54.292;18.598;2023-02-28T02:51:40;14.18;;;4.75;;
70270;SDS011;57680;54.292;18.598;2023-02-28T02:57:51;13.73;;;5.15;;
70270;SDS011;57680;54.292;18.598;2023-02-28T03:00:02;13.55;;;3.45;;
70270;SDS011;57680;54.292;18.598;2023-02-28T03:02:29;12.18;;;3.65;;
70270;SDS011;57680;54.292;18.598;2023-02-28T03:04:57;13.57;;;4.93;;
70270;SDS011;57680;54.292;18.598;2023-02-28T03:07:27;12.45;;;4.53;;
70270;SDS011;57680;54.292;18.598;2023-02-28T03:09:53;11.93;;;4.43;;
70270;SDS011;57680;54.292;18.598;2023-02-28T03:12:20;18.95;;;6.60;;
70270;SDS011;57680;54.292;18.598;2023-02-28T03:18:04;19.67;;;6.30;;
70270;SDS011;57680;54.292;18.598;2023-02-28T03:23:21;18.50;;;6.30;;
70270;SDS011;57680;54.292;18.598;2023-02-28T03:25:56;20.10;;;7.20;;
70270;SDS011;57680;54.292;18.598;2023-02-28T03:30:54;28.88;;;9.27;;
70270;SDS011;57680;54.292;18.598;2023-02-28T03:33:43;27.33;;;9.43;;
70270;SDS011;57680;54.292;18.598;2023-02-28T03:36:15;19.58;;;5.82;;
70270;SDS011;57680;54.292;18.598;2023-02-28T03:38:46;16.70;;;6.03;;
70270;SDS011;57680;54.292;18.598;2023-02-28T03:41:42;14.10;;;5.72;;
70270;SDS011;57680;54.292;18.598;2023-02-28T03:44:51;11.65;;;4.43;;
70270;SDS011;57680;54.292;18.598;2023-02-28T03:47:23;16.93;;;6.00;;
70270;SDS011;57680;54.292;18.598;2023-02-28T03:49:51;11.65;;;4.82;;
70270;SDS011;57680;54.292;18.598;2023-02-28T03:52:20;17.67;;;7.07;;
70270;SDS011;57680;54.292;18.598;2023-02-28T03:54:54;14.20;;;5.18;;
70270;SDS011;57680;54.292;18.598;2023-02-28T03:57:41;25.35;;;6.88;;
70270;SDS011;57680;54.292;18.598;2023-02-28T04:00:18;17.63;;;5.60;;
70270;SDS011;57680;54.292;18.598;2023-02-28T04:02:49;15.75;;;6.43;;
70270;SDS011;57680;54.292;18.598;2023-02-28T04:05:15;16.55;;;6.13;;
70270;SDS011;57680;54.292;18.598;2023-02-28T04:07:41;17.33;;;6.50;;
70270;SDS011;57680;54.292;18.598;2023-02-28T04:10:06;14.68;;;5.82;;
70270;SDS011;57680;54.292;18.598;2023-02-28T04:12:32;19.30;;;6.53;;
70270;SDS011;57680;54.292;18.598;2023-02-28T04:14:57;13.30;;;5.03;;
70270;SDS011;57680;54.292;18.598;2023-02-28T04:17:22;14.43;;;6.17;;
70270;SDS011;57680;54.292;18.598;2023-02-28T04:19:48;15.03;;;5.93;;
70270;SDS011;57680;54.292;18.598;2023-02-28T04:22:14;11.50;;;4.47;;
70270;SDS011;57680;54.292;18.598;2023-02-28T04:24:39;18.83;;;6.25;;
70270;SDS011;57680;54.292;18.598;2023-02-28T04:27:05;19.23;;;7.00;;
70270;SDS011;57680;54.292;18.598;2023-02-28T04:29:31;19.97;;;6.30;;
70270;SDS011;57680;54.292;18.598;2023-02-28T04:31:57;20.63;;;6.88;;
70270;SDS011;57680;54.292;18.598;2023-02-28T04:34:23;22.33;;;6.47;;
70270;SDS011;57680;54.292;18.598;2023-02-28T04:36:50;22.15;;;7.47;;
70270;SDS011;57680;54.292;18.598;2023-02-28T04:39:16;21.07;;;6.73;;
70270;SDS011;57680;54.292;18.598;2023-02-28T04:41:41;22.27;;;7.47;;
70270;SDS011;57680;54.292;18.598;2023-02-28T04:44:07;21.57;;;6.60;;
70270;SDS011;57680;54.292;18.598;2023-02-28T04:46:32;19.20;;;6.63;;
70270;SDS011;57680;54.292;18.598;2023-02-28T04:48:57;19.57;;;6.73;;
70270;SDS011;57680;54.292;18.598;2023-02-28T04:51:23;20.92;;;6.20;;
70270;SDS011;57680;54.292;18.598;2023-02-28T04:53:49;21.27;;;7.35;;
70270;SDS011;57680;54.292;18.598;2023-02-28T04:56:15;15.80;;;5.87;;
70270;SDS011;57680;54.292;18.598;2023-02-28T04:58:42;20.17;;;6.35;;
70270;SDS011;57680;54.292;18.598;2023-02-28T05:01:16;17.60;;;6.07;;
70270;SDS011;57680;54.292;18.598;2023-02-28T05:03:46;13.90;;;4.90;;
70270;SDS011;57680;54.292;18.598;2023-02-28T05:06:12;12.60;;;4.20;;
70270;SDS011;57680;54.292;18.598;2023-02-28T05:08:38;13.13;;;4.55;;
70270;SDS011;57680;54.292;18.598;2023-02-28T05:11:07;12.13;;;4.72;;
70270;SDS011;57680;54.292;18.598;2023-02-28T05:13:38;14.30;;;5.50;;
70270;SDS011;57680;54.292;18.598;2023-02-28T05:16:03;18.77;;;5.70;;
70270;SDS011;57680;54.292;18.598;2023-02-28T05:18:29;18.40;;;5.72;;
70270;SDS011;57680;54.292;18.598;2023-02-28T05:20:54;14.95;;;5.65;;
70270;SDS011;57680;54.292;18.598;2023-02-28T05:23:20;15.53;;;5.67;;
70270;SDS011;57680;54.292;18.598;2023-02-28T05:25:47;14.43;;;5.47;;
70270;SDS011;57680;54.292;18.598;2023-02-28T05:28:13;17.15;;;5.32;;
70270;SDS011;57680;54.292;18.598;2023-02-28T05:30:38;15.57;;;5.83;;
70270;SDS011;57680;54.292;18.598;2023-02-28T05:33:03;14.60;;;6.00;;
70270;SDS011;57680;54.292;18.598;2023-02-28T05:35:29;17.20;;;5.80;;
70270;SDS011;57680;54.292;18.598;2023-02-28T05:37:54;18.97;;;5.37;;
70270;SDS011;57680;54.292;18.598;2023-02-28T05:40:19;18.13;;;5.25;;
70270;SDS011;57680;54.292;18.598;2023-02-28T05:42:45;12.15;;;5.40;;
70270;SDS011;57680;54.292;18.598;2023-02-28T05:45:11;16.45;;;4.72;;
70270;SDS011;57680;54.292;18.598;2023-02-28T05:47:37;17.40;;;5.00;;
70270;SDS011;57680;54.292;18.598;2023-02-28T05:50:03;19.33;;;6.27;;
70270;SDS011;57680;54.292;18.598;2023-02-28T05:52:30;19.60;;;6.93;;
70270;SDS011;57680;54.292;18.598;2023-02-28T05:54:55;23.77;;;7.90;;
70270;SDS011;57680;54.292;18.598;2023-02-28T05:57:21;17.10;;;6.63;;
70270;SDS011;57680;54.292;18.598;2023-02-28T05:59:47;15.32;;;6.70;;
70270;SDS011;57680;54.292;18.598;2023-02-28T06:02:13;14.00;;;5.90;;
70270;SDS011;57680;54.292;18.598;2023-02-28T06:04:40;15.95;;;6.43;;
70270;SDS011;57680;54.292;18.598;2023-02-28T06:07:06;15.85;;;5.95;;
70270;SDS011;57680;54.292;18.598;2023-02-28T06:09:32;14.70;;;5.83;;
70270;SDS011;57680;54.292;18.598;2023-02-28T06:11:58;14.93;;;6.63;;
70270;SDS011;57680;54.292;18.598;2023-02-28T06:14:24;15.95;;;5.63;;
70270;SDS011;57680;54.292;18.598;2023-02-28T06:16:50;16.52;;;5.97;;
70270;SDS011;57680;54.292;18.598;2023-02-28T06:19:15;18.07;;;6.97;;
70270;SDS011;57680;54.292;18.598;2023-02-28T06:21:41;17.45;;;6.10;;
70270;SDS011;57680;54.292;18.598;2023-02-28T06:24:07;19.43;;;7.23;;
70270;SDS011;57680;54.292;18.598;2023-02-28T06:26:32;23.15;;;7.65;;
70270;SDS011;57680;54.292;18.598;2023-02-28T06:28:58;23.10;;;8.43;;
70270;SDS011;57680;54.292;18.598;2023-02-28T06:31:24;18.20;;;5.68;;
70270;SDS011;57680;54.292;18.598;2023-02-28T06:33:50;13.73;;;4.55;;
70270;SDS011;57680;54.292;18.598;2023-02-28T06:36:15;12.67;;;3.93;;
70270;SDS011;57680;54.292;18.598;2023-02-28T06:38:42;15.68;;;5.38;;
70270;SDS011;57680;54.292;18.598;2023-02-28T06:41:08;14.17;;;4.90;;
70270;SDS011;57680;54.292;18.598;2023-02-28T06:43:34;14.13;;;4.68;;
70270;SDS011;57680;54.292;18.598;2023-02-28T06:46:03;12.15;;;4.35;;
70270;SDS011;57680;54.292;18.598;2023-02-28T06:48:30;10.70;;;4.27;;
70270;SDS011;57680;54.292;18.598;2023-02-28T06:51:05;12.18;;;4.50;;
70270;SDS011;57680;54.292;18.598;2023-02-28T06:53:36;14.65;;;5.57;;
70270;SDS011;57680;54.292;18.598;2023-02-28T06:56:05;16.75;;;5.68;;
70270;SDS011;57680;54.292;18.598;2023-02-28T06:58:33;14.87;;;6.00;;
70270;SDS011;57680;54.292;18.598;2023-02-28T07:00:58;16.25;;;5.95;;
70270;SDS011;57680;54.292;18.598;2023-02-28T07:03:24;15.25;;;5.38;;
70270;SDS011;57680;54.292;18.598;2023-02-28T07:05:50;25.53;;;8.70;;
70270;SDS011;57680;54.292;18.598;2023-02-28T07:08:15;26.20;;;9.93;;
70270;SDS011;57680;54.292;18.598;2023-02-28T07:10:40;22.87;;;8.43;;
70270;SDS011;57680;54.292;18.598;2023-02-28T07:13:07;24.77;;;7.90;;
70270;SDS011;57680;54.292;18.598;2023-02-28T07:15:33;23.70;;;7.57;;
70270;SDS011;57680;54.292;18.598;2023-02-28T07:18:00;18.80;;;7.32;;
70270;SDS011;57680;54.292;18.598;2023-02-28T07:20:26;20.20;;;7.38;;
70270;SDS011;57680;54.292;18.598;2023-02-28T07:22:51;19.60;;;6.67;;
70270;SDS011;57680;54.292;18.598;2023-02-28T07:25:16;17.33;;;6.67;;
70270;SDS011;57680;54.292;18.598;2023-02-28T07:27:42;18.30;;;7.03;;
70270;SDS011;57680;54.292;18.598;2023-02-28T07:30:07;18.73;;;7.33;;
70270;SDS011;57680;54.292;18.598;2023-02-28T07:32:33;25.93;;;8.73;;
70270;SDS011;57680;54.292;18.598;2023-02-28T07:34:58;23.17;;;8.73;;
70270;SDS011;57680;54.292;18.598;2023-02-28T07:37:24;20.43;;;7.20;;
70270;SDS011;57680;54.292;18.598;2023-02-28T07:39:49;17.47;;;6.70;;
70270;SDS011;57680;54.292;18.598;2023-02-28T07:42:15;23.07;;;7.00;;
70270;SDS011;57680;54.292;18.598;2023-02-28T07:44:40;23.30;;;7.15;;
70270;SDS011;57680;54.292;18.598;2023-02-28T07:47:07;22.80;;;6.83;;
70270;SDS011;57680;54.292;18.598;2023-02-28T07:49:33;18.48;;;6.53;;
70270;SDS011;57680;54.292;18.598;2023-02-28T07:52:00;18.58;;;6.63;;
70270;SDS011;57680;54.292;18.598;2023-02-28T07:54:25;19.53;;;6.47;;
70270;SDS011;57680;54.292;18.598;2023-02-28T07:56:51;18.27;;;6.90;;
70270;SDS011;57680;54.292;18.598;2023-02-28T07:59:16;20.77;;;6.60;;
70270;SDS011;57680;54.292;18.598;2023-02-28T08:01:41;18.97;;;6.80;;
70270;SDS011;57680;54.292;18.598;2023-02-28T08:04:07;16.03;;;6.50;;
70270;SDS011;57680;54.292;18.598;2023-02-28T08:06:32;20.90;;;7.75;;
70270;SDS011;57680;54.292;18.598;2023-02-28T08:08:57;20.07;;;8.47;;
70270;SDS011;57680;54.292;18.598;2023-02-28T08:11:23;19.83;;;7.90;;
70270;SDS011;57680;54.292;18.598;2023-02-28T08:13:49;23.85;;;8.40;;
70270;SDS011;57680;54.292;18.598;2023-02-28T08:16:14;22.73;;;8.83;;
70270;SDS011;57680;54.292;18.598;2023-02-28T08:18:40;19.30;;;7.20;;
70270;SDS011;57680;54.292;18.598;2023-02-28T08:21:09;33.67;;;8.47;;
70270;SDS011;57680;54.292;18.598;2023-02-28T08:23:35;17.80;;;7.13;;
70270;SDS011;57680;54.292;18.598;2023-02-28T08:26:01;22.07;;;8.20;;
70270;SDS011;57680;54.292;18.598;2023-02-28T08:28:27;22.50;;;7.18;;
70270;SDS011;57680;54.292;18.598;2023-02-28T08:30:52;20.53;;;7.23;;
70270;SDS011;57680;54.292;18.598;2023-02-28T08:33:18;20.70;;;7.40;;
70270;SDS011;57680;54.292;18.598;2023-02-28T08:35:43;19.20;;;6.63;;
70270;SDS011;57680;54.292;18.598;2023-02-28T08:38:08;17.03;;;6.70;;
70270;SDS011;57680;54.292;18.598;2023-02-28T08:40:33;14.40;;;5.80;;
70270;SDS011;57680;54.292;18.598;2023-02-28T08:42:59;17.90;;;5.83;;
70270;SDS011;57680;54.292;18.598;2023-02-28T08:45:24;15.30;;;5.00;;
70270;SDS011;57680;54.292;18.598;2023-02-28T08:47:50;13.07;;;4.63;;
70270;SDS011;57680;54.292;18.598;2023-02-28T08:50:15;12.70;;;4.03;;
70270;SDS011;57680;54.292;18.598;2023-02-28T08:52:44;9.87;;;3.73;;
70270;SDS011;57680;54.292;18.598;2023-02-28T08:55:09;11.70;;;3.90;;
70270;SDS011;57680;54.292;18.598;2023-02-28T08:57:35;7.93;;;2.78;;
70270;SDS011;57680;54.292;18.598;2023-02-28T09:00:01;11.70;;;3.40;;
70270;SDS011;57680;54.292;18.598;2023-02-28T09:02:27;7.07;;;2.15;;
70270;SDS011;57680;54.292;18.598;2023-02-28T09:04:53;5.30;;;1.73;;
70270;SDS011;57680;54.292;18.598;2023-02-28T09:07:18;7.80;;;2.63;;
70270;SDS011;57680;54.292;18.598;2023-02-28T09:09:45;7.37;;;1.93;;
70270;SDS011;57680;54.292;18.598;2023-02-28T09:12:10;8.98;;;2.30;;
70270;SDS011;57680;54.292;18.598;2023-02-28T09:14:35;6.17;;;1.50;;
70270;SDS011;57680;54.292;18.598;2023-02-28T09:17:01;5.20;;;1.73;;
70270;SDS011;57680;54.292;18.598;2023-02-28T09:19:26;9.70;;;2.13;;
70270;SDS011;57680;54.292;18.598;2023-02-28T09:21:52;5.90;;;1.33;;
70270;SDS011;57680;54.292;18.598;2023-02-28T09:24:17;6.27;;;2.00;;
70270;SDS011;57680;54.292;18.598;2023-02-28T09:26:42;6.75;;;1.50;;
70270;SDS011;57680;54.292;18.598;2023-02-28T09:29:08;6.37;;;2.30;;
70270;SDS011;57680;54.292;18.598;2023-02-28T09:31:34;8.38;;;2.13;;
70270;SDS011;57680;54.292;18.598;2023-02-28T09:33:59;4.93;;;1.40;;
70270;SDS011;57680;54.292;18.598;2023-02-28T09:36:25;5.23;;;1.20;;
70270;SDS011;57680;54.292;18.598;2023-02-28T09:38:51;3.20;;;1.30;;
70270;SDS011;57680;54.292;18.598;2023-02-28T09:41:23;6.95;;;1.70;;
70270;SDS011;57680;54.292;18.598;2023-02-28T09:43:51;4.57;;;1.40;;
70270;SDS011;57680;54.292;18.598;2023-02-28T09:46:25;5.10;;;1.88;;
70270;SDS011;57680;54.292;18.598;2023-02-28T09:49:07;4.90;;;1.92;;
70270;SDS011;57680;54.292;18.598;2023-02-28T09:51:45;7.90;;;2.55;;
70270;SDS011;57680;54.292;18.598;2023-02-28T09:54:24;6.80;;;2.97;;
70270;SDS011;57680;54.292;18.598;2023-02-28T09:56:56;8.37;;;2.60;;
70270;SDS011;57680;54.292;18.598;2023-02-28T10:03:00;10.95;;;4.10;;
70270;SDS011;57680;54.292;18.598;2023-02-28T10:08:18;10.88;;;3.78;;
70270;SDS011;57680;54.292;18.598;2023-02-28T10:10:51;17.50;;;4.93;;
70270;SDS011;57680;54.292;18.598;2023-02-28T10:13:25;13.50;;;4.82;;
70270;SDS011;57680;54.292;18.598;2023-02-28T10:16:31;11.20;;;4.30;;
70270;SDS011;57680;54.292;18.598;2023-02-28T10:19:06;11.43;;;4.40;;
70270;SDS011;57680;54.292;18.598;2023-02-28T10:21:44;13.20;;;4.78;;
70270;SDS011;57680;54.292;18.598;2023-02-28T10:27:00;13.25;;;5.00;;
70270;SDS011;57680;54.292;18.598;2023-02-28T10:29:31;12.63;;;4.97;;
70270;SDS011;57680;54.292;18.598;2023-02-28T10:31:58;11.75;;;4.82;;
70270;SDS011;57680;54.292;18.598;2023-02-28T10:34:27;15.57;;;5.25;;
70270;SDS011;57680;54.292;18.598;2023-02-28T10:36:52;14.27;;;5.17;;
70270;SDS011;57680;54.292;18.598;2023-02-28T10:42:18;13.13;;;4.65;;
70270;SDS011;57680;54.292;18.598;2023-02-28T10:50:50;13.98;;;4.95;;
70270;SDS011;57680;54.292;18.598;2023-02-28T10:56:00;15.27;;;5.22;;
70270;SDS011;57680;54.292;18.598;2023-02-28T11:03:55;10.65;;;3.83;;
70270;SDS011;57680;54.292;18.598;2023-02-28T11:06:25;9.75;;;3.63;;
70270;SDS011;57680;54.292;18.598;2023-02-28T11:09:00;9.97;;;3.30;;
70270;SDS011;57680;54.292;18.598;2023-02-28T11:11:29;8.82;;;3.40;;
70270;SDS011;57680;54.292;18.598;2023-02-28T11:14:07;10.30;;;3.30;;
70270;SDS011;57680;54.292;18.598;2023-02-28T11:16:45;13.23;;;3.53;;
70270;SDS011;57680;54.292;18.598;2023-02-28T11:19:17;7.50;;;3.20;;
70270;SDS011;57680;54.292;18.598;2023-02-28T11:22:03;11.70;;;3.50;;
70270;SDS011;57680;54.292;18.598;2023-02-28T11:24:31;11.95;;;3.60;;
70270;SDS011;57680;54.292;18.598;2023-02-28T11:27:00;12.82;;;3.90;;
70270;SDS011;57680;54.292;18.598;2023-02-28T11:29:28;10.52;;;4.00;;
70270;SDS011;57680;54.292;18.598;2023-02-28T11:32:16;11.77;;;4.00;;
70270;SDS011;57680;54.292;18.598;2023-02-28T11:34:44;10.30;;;3.92;;
70270;SDS011;57680;54.292;18.598;2023-02-28T11:37:15;12.10;;;4.40;;
70270;SDS011;57680;54.292;18.598;2023-02-28T11:39:44;12.05;;;4.43;;
70270;SDS011;57680;54.292;18.598;2023-02-28T11:50:55;11.32;;;4.10;;
70270;SDS011;57680;54.292;18.598;2023-02-28T11:56:09;10.65;;;4.13;;
70270;SDS011;57680;54.292;18.598;2023-02-28T12:06:56;11.50;;;4.13;;
70270;SDS011;57680;54.292;18.598;2023-02-28T12:28:59;7.60;;;2.63;;
70270;SDS011;57680;54.292;18.598;2023-02-28T12:31:35;9.82;;;3.25;;
70270;SDS011;57680;54.292;18.598;2023-02-28T12:34:04;9.00;;;3.10;;
70270;SDS011;57680;54.292;18.598;2023-02-28T12:36:35;10.55;;;3.45;;
70270;SDS011;57680;54.292;18.598;2023-02-28T12:39:04;8.63;;;3.30;;
70270;SDS011;57680;54.292;18.598;2023-02-28T12:44:20;9.07;;;3.33;;
70270;SDS011;57680;54.292;18.598;2023-02-28T12:47:05;8.63;;;2.83;;
70270;SDS011;57680;54.292;18.598;2023-02-28T12:49:42;10.63;;;2.90;;
70270;SDS011;57680;54.292;18.598;2023-02-28T12:52:47;7.93;;;2.03;;
70270;SDS011;57680;54.292;18.598;2023-02-28T13:04:07;9.80;;;2.70;;
70270;SDS011;57680;54.292;18.598;2023-02-28T13:10:02;8.10;;;2.28;;
70270;SDS011;57680;54.292;18.598;2023-02-28T13:12:30;7.65;;;2.70;;
70270;SDS011;57680;54.292;18.598;2023-02-28T13:15:04;9.03;;;3.37;;
70270;SDS011;57680;54.292;18.598;2023-02-28T13:17:33;7.97;;;2.47;;
70270;SDS011;57680;54.292;18.598;2023-02-28T13:19:59;6.60;;;2.65;;
70270;SDS011;57680;54.292;18.598;2023-02-28T13:24:51;10.37;;;3.37;;
70270;SDS011;57680;54.292;18.598;2023-02-28T13:27:22;8.23;;;3.17;;
70270;SDS011;57680;54.292;18.598;2023-02-28T13:29:47;9.10;;;2.80;;
70270;SDS011;57680;54.292;18.598;2023-02-28T13:32:20;10.80;;;3.00;;
70270;SDS011;57680;54.292;18.598;2023-02-28T13:39:49;8.00;;;2.67;;
70270;SDS011;57680;54.292;18.598;2023-02-28T13:47:42;9.20;;;3.28;;
70270;SDS011;57680;54.292;18.598;2023-02-28T13:55:54;7.00;;;2.78;;
70270;SDS011;57680;54.292;18.598;2023-02-28T14:04:21;8.30;;;2.78;;
70270;SDS011;57680;54.292;18.598;2023-02-28T14:07:01;7.97;;;2.87;;
70270;SDS011;57680;54.292;18.598;2023-02-28T14:09:34;8.23;;;2.45;;
70270;SDS011;57680;54.292;18.598;2023-02-28T14:17:54;8.75;;;2.45;;
70270;SDS011;57680;54.292;18.598;2023-02-28T14:20:21;7.25;;;2.30;;
70270;SDS011;57680;54.292;18.598;2023-02-28T14:25:37;7.30;;;2.20;;
70270;SDS011;57680;54.292;18.598;2023-02-28T14:28:37;7.60;;;2.37;;
70270;SDS011;57680;54.292;18.598;2023-02-28T14:31:09;9.55;;;2.20;;
70270;SDS011;57680;54.292;18.598;2023-02-28T14:33:42;9.65;;;2.70;;
70270;SDS011;57680;54.292;18.598;2023-02-28T14:36:20;8.50;;;2.60;;
70270;SDS011;57680;54.292;18.598;2023-02-28T14:38:52;8.00;;;2.72;;
70270;SDS011;57680;54.292;18.598;2023-02-28T14:41:22;6.43;;;2.30;;
70270;SDS011;57680;54.292;18.598;2023-02-28T14:43:56;8.48;;;2.15;;
70270;SDS011;57680;54.292;18.598;2023-02-28T14:46:25;7.55;;;2.88;;
70270;SDS011;57680;54.292;18.598;2023-02-28T14:48:54;7.90;;;2.83;;
70270;SDS011;57680;54.292;18.598;2023-02-28T14:51:20;7.65;;;2.90;;
70270;SDS011;57680;54.292;18.598;2023-02-28T14:53:49;8.00;;;3.03;;
70270;SDS011;57680;54.292;18.598;2023-02-28T14:56:23;7.30;;;2.20;;
70270;SDS011;57680;54.292;18.598;2023-02-28T14:58:57;8.32;;;2.30;;
70270;SDS011;57680;54.292;18.598;2023-02-28T15:01:24;11.23;;;2.37;;
70270;SDS011;57680;54.292;18.598;2023-02-28T15:04:00;9.32;;;2.67;;
70270;SDS011;57680;54.292;18.598;2023-02-28T15:06:30;8.68;;;2.67;;
70270;SDS011;57680;54.292;18.598;2023-02-28T15:09:10;8.48;;;2.67;;
70270;SDS011;57680;54.292;18.598;2023-02-28T15:11:36;8.98;;;2.70;;
70270;SDS011;57680;54.292;18.598;2023-02-28T15:14:03;7.93;;;2.20;;
70270;SDS011;57680;54.292;18.598;2023-02-28T15:16:31;8.40;;;2.78;;
70270;SDS011;57680;54.292;18.598;2023-02-28T15:19:46;10.68;;;3.53;;
70270;SDS011;57680;54.292;18.598;2023-02-28T15:21:52;8.48;;;3.03;;
70270;SDS011;57680;54.292;18.598;2023-02-28T15:24:38;9.80;;;3.40;;
70270;SDS011;57680;54.292;18.598;2023-02-28T15:27:10;10.33;;;3.30;;
70270;SDS011;57680;54.292;18.598;2023-02-28T15:29:43;9.88;;;3.65;;
70270;SDS011;57680;54.292;18.598;2023-02-28T15:32:26;14.85;;;3.63;;
70270;SDS011;57680;54.292;18.598;2023-02-28T15:34:55;10.68;;;4.25;;
70270;SDS011;57680;54.292;18.598;2023-02-28T15:37:45;10.00;;;3.80;;
70270;SDS011;57680;54.292;18.598;2023-02-28T15:42:58;10.63;;;3.63;;
70270;SDS011;57680;54.292;18.598;2023-02-28T15:45:57;10.93;;;3.72;;
70270;SDS011;57680;54.292;18.598;2023-02-28T15:51:18;11.40;;;3.80;;
70270;SDS011;57680;54.292;18.598;2023-02-28T15:56:43;12.20;;;4.20;;
70270;SDS011;57680;54.292;18.598;2023-02-28T15:59:19;11.63;;;4.50;;
70270;SDS011;57680;54.292;18.598;2023-02-28T16:04:54;12.88;;;4.32;;
70270;SDS011;57680;54.292;18.598;2023-02-28T16:07:43;10.47;;;3.33;;
70270;SDS011;57680;54.292;18.598;2023-02-28T16:10:09;16.08;;;4.03;;
70270;SDS011;57680;54.292;18.598;2023-02-28T16:12:37;13.38;;;3.97;;
70270;SDS011;57680;54.292;18.598;2023-02-28T16:15:24;11.60;;;4.15;;
70270;SDS011;57680;54.292;18.598;2023-02-28T16:17:51;10.77;;;3.87;;
70270;SDS011;57680;54.292;18.598;2023-02-28T16:20:19;11.95;;;3.95;;
70270;SDS011;57680;54.292;18.598;2023-02-28T16:22:52;11.80;;;4.38;;
70270;SDS011;57680;54.292;18.598;2023-02-28T16:25:19;12.77;;;4.00;;
70270;SDS011;57680;54.292;18.598;2023-02-28T16:27:48;13.35;;;4.05;;
70270;SDS011;57680;54.292;18.598;2023-02-28T16:30:21;13.40;;;4.15;;
70270;SDS011;57680;54.292;18.598;2023-02-28T16:32:49;11.03;;;4.77;;
70270;SDS011;57680;54.292;18.598;2023-02-28T16:35:17;15.02;;;4.45;;
70270;SDS011;57680;54.292;18.598;2023-02-28T16:37:43;11.73;;;4.38;;
70270;SDS011;57680;54.292;18.598;2023-02-28T16:40:14;13.45;;;4.70;;
70270;SDS011;57680;54.292;18.598;2023-02-28T16:42:44;12.55;;;4.78;;
70270;SDS011;57680;54.292;18.598;2023-02-28T16:45:32;10.50;;;4.30;;
70270;SDS011;57680;54.292;18.598;2023-02-28T16:47:57;13.85;;;4.90;;
70270;SDS011;57680;54.292;18.598;2023-02-28T16:50:26;15.67;;;4.73;;
70270;SDS011;57680;54.292;18.598;2023-02-28T16:52:53;13.48;;;4.70;;
70270;SDS011;57680;54.292;18.598;2023-02-28T16:55:20;14.23;;;5.05;;
70270;SDS011;57680;54.292;18.598;2023-02-28T16:57:48;17.53;;;5.93;;
70270;SDS011;57680;54.292;18.598;2023-02-28T17:00:19;16.13;;;6.15;;
70270;SDS011;57680;54.292;18.598;2023-02-28T17:02:44;16.70;;;5.53;;
70270;SDS011;57680;54.292;18.598;2023-02-28T17:05:13;17.10;;;6.30;;
70270;SDS011;57680;54.292;18.598;2023-02-28T17:07:39;17.73;;;5.70;;